sensor_id;sensor_type;location;lat;lon;timestamp;P1;durP1;ratioP1;P2;durP2;ratioP2
18443;SDS011;9350;53.176;8.194;2022-09-01T00:01:43;1.30;;;1.00;;
18443;SDS011;9350;53.176;8.194;2022-09-01T00:04:13;1.30;;;1.20;;
18443;SDS011;9350;53.176;8.194;2022-09-01T00:06:41;1.55;;;1.20;;
18443;SDS011;9350;53.176;8.194;2022-09-01T00:09:11;2.97;;;1.05;;
18443;SDS011;9350;53.176;8.194;2022-09-01T00:11:39;1.55;;;1.00;;
18443;SDS011;9350;53.176;8.194;2022-09-01T00:14:09;5.28;;;1.30;;
18443;SDS011;9350;53.176;8.194;2022-09-01T00:16:36;1.58;;;1.10;;
18443;SDS011;9350;53.176;8.194;2022-09-01T00:19:04;1.38;;;1.00;;
18443;SDS011;9350;53.176;8.194;2022-09-01T00:21:33;1.38;;;1.27;;
18443;SDS011;9350;53.176;8.194;2022-09-01T00:24:02;2.20;;;1.00;;
18443;SDS011;9350;53.176;8.194;2022-09-01T00:26:30;0.90;;;0.90;;
18443;SDS011;9350;53.176;8.194;2022-09-01T00:28:57;4.28;;;1.10;;
18443;SDS011;9350;53.176;8.194;2022-09-01T00:31:24;1.60;;;1.48;;
18443;SDS011;9350;53.176;8.194;2022-09-01T00:33:51;1.30;;;1.30;;
18443;SDS011;9350;53.176;8.194;2022-09-01T00:36:19;2.30;;;1.00;;
18443;SDS011;9350;53.176;8.194;2022-09-01T00:38:46;1.02;;;1.02;;
18443;SDS011;9350;53.176;8.194;2022-09-01T00:41:15;3.50;;;1.08;;
18443;SDS011;9350;53.176;8.194;2022-09-01T00:43:44;0.90;;;0.90;;
18443;SDS011;9350;53.176;8.194;2022-09-01T00:46:14;2.05;;;1.10;;
18443;SDS011;9350;53.176;8.194;2022-09-01T00:48:42;1.15;;;1.08;;
18443;SDS011;9350;53.176;8.194;2022-09-01T00:51:10;1.23;;;1.00;;
18443;SDS011;9350;53.176;8.194;2022-09-01T00:53:39;0.98;;;0.98;;
18443;SDS011;9350;53.176;8.194;2022-09-01T00:56:09;0.80;;;0.80;;
18443;SDS011;9350;53.176;8.194;2022-09-01T00:58:38;1.40;;;1.30;;
18443;SDS011;9350;53.176;8.194;2022-09-01T01:01:05;1.08;;;1.00;;
18443;SDS011;9350;53.176;8.194;2022-09-01T01:03:34;1.75;;;1.20;;
18443;SDS011;9350;53.176;8.194;2022-09-01T01:06:02;1.00;;;1.00;;
18443;SDS011;9350;53.176;8.194;2022-09-01T01:08:33;1.27;;;1.20;;
18443;SDS011;9350;53.176;8.194;2022-09-01T01:11:05;1.58;;;1.13;;
18443;SDS011;9350;53.176;8.194;2022-09-01T01:13:45;1.73;;;1.00;;
18443;SDS011;9350;53.176;8.194;2022-09-01T01:16:15;1.25;;;1.15;;
18443;SDS011;9350;53.176;8.194;2022-09-01T01:18:42;1.00;;;1.00;;
18443;SDS011;9350;53.176;8.194;2022-09-01T01:21:12;1.15;;;1.15;;
18443;SDS011;9350;53.176;8.194;2022-09-01T01:24:01;1.00;;;1.00;;
18443;SDS011;9350;53.176;8.194;2022-09-01T01:26:35;1.27;;;1.17;;
18443;SDS011;9350;53.176;8.194;2022-09-01T01:29:02;2.17;;;1.00;;
18443;SDS011;9350;53.176;8.194;2022-09-01T01:31:30;1.50;;;1.10;;
18443;SDS011;9350;53.176;8.194;2022-09-01T01:33:57;1.65;;;0.80;;
18443;SDS011;9350;53.176;8.194;2022-09-01T01:36:25;0.90;;;0.90;;
18443;SDS011;9350;53.176;8.194;2022-09-01T01:38:56;1.20;;;1.20;;
18443;SDS011;9350;53.176;8.194;2022-09-01T01:41:26;1.00;;;1.00;;
18443;SDS011;9350;53.176;8.194;2022-09-01T01:43:55;1.25;;;1.10;;
18443;SDS011;9350;53.176;8.194;2022-09-01T01:46:23;1.10;;;1.10;;
18443;SDS011;9350;53.176;8.194;2022-09-01T01:48:51;1.30;;;1.20;;
18443;SDS011;9350;53.176;8.194;2022-09-01T01:51:19;4.60;;;1.30;;
18443;SDS011;9350;53.176;8.194;2022-09-01T01:53:49;2.50;;;1.10;;
18443;SDS011;9350;53.176;8.194;2022-09-01T01:56:16;1.25;;;1.17;;
18443;SDS011;9350;53.176;8.194;2022-09-01T01:58:43;1.08;;;1.08;;
18443;SDS011;9350;53.176;8.194;2022-09-01T02:01:11;1.10;;;1.00;;
18443;SDS011;9350;53.176;8.194;2022-09-01T02:03:41;1.10;;;1.10;;
18443;SDS011;9350;53.176;8.194;2022-09-01T02:06:09;2.03;;;1.35;;
18443;SDS011;9350;53.176;8.194;2022-09-01T02:08:36;1.67;;;1.10;;
18443;SDS011;9350;53.176;8.194;2022-09-01T02:11:05;1.20;;;1.20;;
18443;SDS011;9350;53.176;8.194;2022-09-01T02:13:32;1.10;;;1.10;;
18443;SDS011;9350;53.176;8.194;2022-09-01T02:16:00;1.95;;;1.42;;
18443;SDS011;9350;53.176;8.194;2022-09-01T02:18:31;1.10;;;1.10;;
18443;SDS011;9350;53.176;8.194;2022-09-01T02:21:00;2.47;;;1.27;;
18443;SDS011;9350;53.176;8.194;2022-09-01T02:23:28;1.35;;;1.35;;
18443;SDS011;9350;53.176;8.194;2022-09-01T02:25:57;1.63;;;1.08;;
18443;SDS011;9350;53.176;8.194;2022-09-01T02:28:26;1.23;;;1.23;;
18443;SDS011;9350;53.176;8.194;2022-09-01T02:30:56;1.25;;;1.25;;
18443;SDS011;9350;53.176;8.194;2022-09-01T02:33:26;1.40;;;1.30;;
18443;SDS011;9350;53.176;8.194;2022-09-01T02:35:58;2.45;;;1.30;;
18443;SDS011;9350;53.176;8.194;2022-09-01T02:38:26;1.33;;;1.23;;
18443;SDS011;9350;53.176;8.194;2022-09-01T02:40:54;1.77;;;1.20;;
18443;SDS011;9350;53.176;8.194;2022-09-01T02:43:22;1.40;;;1.30;;
18443;SDS011;9350;53.176;8.194;2022-09-01T02:45:52;1.63;;;1.40;;
18443;SDS011;9350;53.176;8.194;2022-09-01T02:48:24;7.47;;;1.40;;
18443;SDS011;9350;53.176;8.194;2022-09-01T02:50:58;2.47;;;1.40;;
18443;SDS011;9350;53.176;8.194;2022-09-01T02:53:25;1.35;;;1.25;;
18443;SDS011;9350;53.176;8.194;2022-09-01T02:55:52;1.83;;;1.17;;
18443;SDS011;9350;53.176;8.194;2022-09-01T02:58:23;1.65;;;1.13;;
18443;SDS011;9350;53.176;8.194;2022-09-01T03:00:51;1.52;;;1.42;;
18443;SDS011;9350;53.176;8.194;2022-09-01T03:03:18;1.58;;;1.48;;
18443;SDS011;9350;53.176;8.194;2022-09-01T03:05:46;1.40;;;1.40;;
18443;SDS011;9350;53.176;8.194;2022-09-01T03:08:14;1.67;;;1.30;;
18443;SDS011;9350;53.176;8.194;2022-09-01T03:10:42;1.40;;;1.30;;
18443;SDS011;9350;53.176;8.194;2022-09-01T03:13:12;2.88;;;1.30;;
18443;SDS011;9350;53.176;8.194;2022-09-01T03:15:40;1.52;;;1.42;;
18443;SDS011;9350;53.176;8.194;2022-09-01T03:18:08;2.05;;;1.60;;
18443;SDS011;9350;53.176;8.194;2022-09-01T03:20:36;1.80;;;1.70;;
18443;SDS011;9350;53.176;8.194;2022-09-01T03:23:08;1.65;;;1.55;;
18443;SDS011;9350;53.176;8.194;2022-09-01T03:25:40;1.80;;;1.70;;
18443;SDS011;9350;53.176;8.194;2022-09-01T03:28:08;1.67;;;1.50;;
18443;SDS011;9350;53.176;8.194;2022-09-01T03:30:37;1.55;;;1.50;;
18443;SDS011;9350;53.176;8.194;2022-09-01T03:33:09;2.63;;;1.40;;
18443;SDS011;9350;53.176;8.194;2022-09-01T03:35:36;1.30;;;1.25;;
18443;SDS011;9350;53.176;8.194;2022-09-01T03:38:03;3.22;;;1.85;;
18443;SDS011;9350;53.176;8.194;2022-09-01T03:40:31;4.88;;;1.55;;
18443;SDS011;9350;53.176;8.194;2022-09-01T03:43:02;2.78;;;1.92;;
18443;SDS011;9350;53.176;8.194;2022-09-01T03:45:34;2.53;;;1.63;;
18443;SDS011;9350;53.176;8.194;2022-09-01T03:48:02;1.63;;;1.52;;
18443;SDS011;9350;53.176;8.194;2022-09-01T03:50:33;1.55;;;1.30;;
18443;SDS011;9350;53.176;8.194;2022-09-01T03:53:03;2.45;;;1.80;;
18443;SDS011;9350;53.176;8.194;2022-09-01T03:55:31;1.63;;;1.63;;
18443;SDS011;9350;53.176;8.194;2022-09-01T03:57:59;1.63;;;1.52;;
18443;SDS011;9350;53.176;8.194;2022-09-01T04:00:31;2.08;;;1.55;;
18443;SDS011;9350;53.176;8.194;2022-09-01T04:03:00;1.73;;;1.63;;
18443;SDS011;9350;53.176;8.194;2022-09-01T04:05:29;2.28;;;1.60;;
18443;SDS011;9350;53.176;8.194;2022-09-01T04:07:58;1.65;;;1.55;;
18443;SDS011;9350;53.176;8.194;2022-09-01T04:10:27;1.80;;;1.70;;
18443;SDS011;9350;53.176;8.194;2022-09-01T04:12:56;1.95;;;1.65;;
18443;SDS011;9350;53.176;8.194;2022-09-01T04:15:25;1.30;;;1.23;;
18443;SDS011;9350;53.176;8.194;2022-09-01T04:17:53;1.70;;;1.60;;
18443;SDS011;9350;53.176;8.194;2022-09-01T04:20:34;1.50;;;1.40;;
18443;SDS011;9350;53.176;8.194;2022-09-01T04:23:12;2.95;;;1.52;;
18443;SDS011;9350;53.176;8.194;2022-09-01T04:25:41;1.92;;;1.63;;
18443;SDS011;9350;53.176;8.194;2022-09-01T04:28:07;1.50;;;1.40;;
18443;SDS011;9350;53.176;8.194;2022-09-01T04:30:43;2.03;;;1.80;;
18443;SDS011;9350;53.176;8.194;2022-09-01T04:33:09;1.77;;;1.67;;
18443;SDS011;9350;53.176;8.194;2022-09-01T04:35:37;4.93;;;1.73;;
18443;SDS011;9350;53.176;8.194;2022-09-01T04:38:04;3.10;;;1.50;;
18443;SDS011;9350;53.176;8.194;2022-09-01T04:40:32;1.65;;;1.55;;
18443;SDS011;9350;53.176;8.194;2022-09-01T04:43:03;1.38;;;1.27;;
18443;SDS011;9350;53.176;8.194;2022-09-01T04:45:29;2.50;;;2.00;;
18443;SDS011;9350;53.176;8.194;2022-09-01T04:48:00;1.58;;;1.48;;
18443;SDS011;9350;53.176;8.194;2022-09-01T04:50:27;2.78;;;1.55;;
18443;SDS011;9350;53.176;8.194;2022-09-01T04:52:56;1.80;;;1.70;;
18443;SDS011;9350;53.176;8.194;2022-09-01T04:55:25;1.48;;;1.48;;
18443;SDS011;9350;53.176;8.194;2022-09-01T04:57:54;1.60;;;1.50;;
18443;SDS011;9350;53.176;8.194;2022-09-01T05:00:22;1.80;;;1.70;;
18443;SDS011;9350;53.176;8.194;2022-09-01T05:02:50;1.60;;;1.50;;
18443;SDS011;9350;53.176;8.194;2022-09-01T05:05:20;1.40;;;1.40;;
18443;SDS011;9350;53.176;8.194;2022-09-01T05:07:47;1.40;;;1.40;;
18443;SDS011;9350;53.176;8.194;2022-09-01T05:10:19;1.77;;;1.67;;
18443;SDS011;9350;53.176;8.194;2022-09-01T05:12:47;1.75;;;1.65;;
18443;SDS011;9350;53.176;8.194;2022-09-01T05:15:16;1.83;;;1.50;;
18443;SDS011;9350;53.176;8.194;2022-09-01T05:17:43;1.85;;;1.65;;
18443;SDS011;9350;53.176;8.194;2022-09-01T05:20:11;1.67;;;1.42;;
18443;SDS011;9350;53.176;8.194;2022-09-01T05:22:39;1.45;;;1.40;;
18443;SDS011;9350;53.176;8.194;2022-09-01T05:25:06;4.13;;;1.65;;
18443;SDS011;9350;53.176;8.194;2022-09-01T05:27:38;1.70;;;1.60;;
18443;SDS011;9350;53.176;8.194;2022-09-01T05:30:07;2.70;;;1.40;;
18443;SDS011;9350;53.176;8.194;2022-09-01T05:32:34;1.50;;;1.50;;
18443;SDS011;9350;53.176;8.194;2022-09-01T05:35:04;1.58;;;1.50;;
18443;SDS011;9350;53.176;8.194;2022-09-01T05:37:32;6.07;;;2.17;;
18443;SDS011;9350;53.176;8.194;2022-09-01T05:40:03;1.83;;;1.70;;
18443;SDS011;9350;53.176;8.194;2022-09-01T05:42:31;2.42;;;1.83;;
18443;SDS011;9350;53.176;8.194;2022-09-01T05:44:58;1.52;;;1.35;;
18443;SDS011;9350;53.176;8.194;2022-09-01T05:47:26;1.50;;;1.40;;
18443;SDS011;9350;53.176;8.194;2022-09-01T05:49:53;1.95;;;1.48;;
18443;SDS011;9350;53.176;8.194;2022-09-01T05:52:22;2.13;;;1.50;;
18443;SDS011;9350;53.176;8.194;2022-09-01T05:54:50;1.20;;;1.20;;
18443;SDS011;9350;53.176;8.194;2022-09-01T05:57:19;4.20;;;1.40;;
18443;SDS011;9350;53.176;8.194;2022-09-01T05:59:45;1.58;;;1.40;;
18443;SDS011;9350;53.176;8.194;2022-09-01T06:02:17;5.78;;;1.65;;
18443;SDS011;9350;53.176;8.194;2022-09-01T06:04:45;1.45;;;1.35;;
18443;SDS011;9350;53.176;8.194;2022-09-01T06:07:13;1.63;;;1.40;;
18443;SDS011;9350;53.176;8.194;2022-09-01T06:09:42;3.33;;;1.35;;
18443;SDS011;9350;53.176;8.194;2022-09-01T06:12:10;2.08;;;1.30;;
18443;SDS011;9350;53.176;8.194;2022-09-01T06:14:44;2.33;;;1.33;;
18443;SDS011;9350;53.176;8.194;2022-09-01T06:17:11;3.03;;;1.90;;
18443;SDS011;9350;53.176;8.194;2022-09-01T06:19:40;1.60;;;1.50;;
18443;SDS011;9350;53.176;8.194;2022-09-01T06:22:07;2.28;;;1.40;;
18443;SDS011;9350;53.176;8.194;2022-09-01T06:24:34;3.42;;;1.70;;
18443;SDS011;9350;53.176;8.194;2022-09-01T06:27:03;2.35;;;1.42;;
18443;SDS011;9350;53.176;8.194;2022-09-01T06:29:31;3.38;;;1.65;;
18443;SDS011;9350;53.176;8.194;2022-09-01T06:31:59;2.83;;;1.50;;
18443;SDS011;9350;53.176;8.194;2022-09-01T06:34:26;4.43;;;1.35;;
18443;SDS011;9350;53.176;8.194;2022-09-01T06:36:53;2.28;;;1.52;;
18443;SDS011;9350;53.176;8.194;2022-09-01T06:39:20;2.35;;;1.40;;
18443;SDS011;9350;53.176;8.194;2022-09-01T06:41:48;1.30;;;1.25;;
18443;SDS011;9350;53.176;8.194;2022-09-01T06:44:16;2.50;;;1.38;;
18443;SDS011;9350;53.176;8.194;2022-09-01T06:46:46;1.30;;;1.25;;
18443;SDS011;9350;53.176;8.194;2022-09-01T06:49:14;2.35;;;1.48;;
18443;SDS011;9350;53.176;8.194;2022-09-01T06:51:41;2.22;;;1.63;;
18443;SDS011;9350;53.176;8.194;2022-09-01T06:54:08;1.70;;;1.60;;
18443;SDS011;9350;53.176;8.194;2022-09-01T06:56:38;2.58;;;1.70;;
18443;SDS011;9350;53.176;8.194;2022-09-01T06:59:05;1.60;;;1.50;;
18443;SDS011;9350;53.176;8.194;2022-09-01T07:01:31;2.55;;;1.48;;
18443;SDS011;9350;53.176;8.194;2022-09-01T07:03:59;1.40;;;1.40;;
18443;SDS011;9350;53.176;8.194;2022-09-01T07:06:28;3.88;;;1.70;;
18443;SDS011;9350;53.176;8.194;2022-09-01T07:08:55;1.90;;;1.52;;
18443;SDS011;9350;53.176;8.194;2022-09-01T07:11:24;1.55;;;1.45;;
18443;SDS011;9350;53.176;8.194;2022-09-01T07:13:53;2.65;;;1.75;;
18443;SDS011;9350;53.176;8.194;2022-09-01T07:16:23;1.75;;;1.60;;
18443;SDS011;9350;53.176;8.194;2022-09-01T07:18:51;1.80;;;1.40;;
18443;SDS011;9350;53.176;8.194;2022-09-01T07:21:22;3.03;;;2.05;;
18443;SDS011;9350;53.176;8.194;2022-09-01T07:23:50;1.70;;;1.60;;
18443;SDS011;9350;53.176;8.194;2022-09-01T07:26:17;2.67;;;1.48;;
18443;SDS011;9350;53.176;8.194;2022-09-01T07:28:49;1.50;;;1.40;;
18443;SDS011;9350;53.176;8.194;2022-09-01T07:31:17;3.08;;;1.23;;
18443;SDS011;9350;53.176;8.194;2022-09-01T07:33:45;1.50;;;1.40;;
18443;SDS011;9350;53.176;8.194;2022-09-01T07:36:13;2.97;;;1.30;;
18443;SDS011;9350;53.176;8.194;2022-09-01T07:38:40;2.05;;;1.38;;
18443;SDS011;9350;53.176;8.194;2022-09-01T07:41:09;1.95;;;1.30;;
18443;SDS011;9350;53.176;8.194;2022-09-01T07:43:37;1.45;;;1.35;;
18443;SDS011;9350;53.176;8.194;2022-09-01T07:46:06;1.98;;;1.40;;
18443;SDS011;9350;53.176;8.194;2022-09-01T07:48:33;3.05;;;1.45;;
18443;SDS011;9350;53.176;8.194;2022-09-01T07:51:00;1.48;;;1.30;;
18443;SDS011;9350;53.176;8.194;2022-09-01T07:53:28;1.83;;;1.27;;
18443;SDS011;9350;53.176;8.194;2022-09-01T07:55:57;1.23;;;1.13;;
18443;SDS011;9350;53.176;8.194;2022-09-01T07:58:27;1.70;;;1.60;;
18443;SDS011;9350;53.176;8.194;2022-09-01T08:00:55;2.78;;;1.30;;
18443;SDS011;9350;53.176;8.194;2022-09-01T08:03:24;2.15;;;1.52;;
18443;SDS011;9350;53.176;8.194;2022-09-01T08:05:51;1.33;;;1.23;;
18443;SDS011;9350;53.176;8.194;2022-09-01T08:08:21;1.92;;;1.38;;
18443;SDS011;9350;53.176;8.194;2022-09-01T08:10:49;1.63;;;1.50;;
18443;SDS011;9350;53.176;8.194;2022-09-01T08:13:16;1.50;;;1.40;;
18443;SDS011;9350;53.176;8.194;2022-09-01T08:15:44;5.97;;;1.90;;
18443;SDS011;9350;53.176;8.194;2022-09-01T08:18:11;1.70;;;1.27;;
18443;SDS011;9350;53.176;8.194;2022-09-01T08:20:39;3.45;;;1.38;;
18443;SDS011;9350;53.176;8.194;2022-09-01T08:23:09;1.42;;;1.35;;
18443;SDS011;9350;53.176;8.194;2022-09-01T08:25:38;2.33;;;1.50;;
18443;SDS011;9350;53.176;8.194;2022-09-01T08:28:06;3.33;;;1.45;;
18443;SDS011;9350;53.176;8.194;2022-09-01T08:30:33;1.25;;;1.17;;
18443;SDS011;9350;53.176;8.194;2022-09-01T08:33:01;1.70;;;1.30;;
18443;SDS011;9350;53.176;8.194;2022-09-01T08:35:28;3.88;;;1.48;;
18443;SDS011;9350;53.176;8.194;2022-09-01T08:37:55;1.67;;;1.30;;
18443;SDS011;9350;53.176;8.194;2022-09-01T08:40:22;1.42;;;1.30;;
18443;SDS011;9350;53.176;8.194;2022-09-01T08:42:53;1.27;;;1.27;;
18443;SDS011;9350;53.176;8.194;2022-09-01T08:45:28;1.30;;;1.20;;
18443;SDS011;9350;53.176;8.194;2022-09-01T08:47:59;2.75;;;1.17;;
18443;SDS011;9350;53.176;8.194;2022-09-01T08:50:32;1.70;;;1.10;;
18443;SDS011;9350;53.176;8.194;2022-09-01T08:53:01;1.23;;;1.10;;
18443;SDS011;9350;53.176;8.194;2022-09-01T08:55:36;2.10;;;1.27;;
18443;SDS011;9350;53.176;8.194;2022-09-01T08:58:08;1.98;;;1.33;;
18443;SDS011;9350;53.176;8.194;2022-09-01T09:00:37;1.20;;;1.10;;
18443;SDS011;9350;53.176;8.194;2022-09-01T09:03:12;0.90;;;0.90;;
18443;SDS011;9350;53.176;8.194;2022-09-01T09:05:48;1.23;;;1.17;;
18443;SDS011;9350;53.176;8.194;2022-09-01T09:08:37;1.70;;;1.02;;
18443;SDS011;9350;53.176;8.194;2022-09-01T09:11:24;1.20;;;1.20;;
18443;SDS011;9350;53.176;8.194;2022-09-01T09:14:14;1.00;;;1.00;;
18443;SDS011;9350;53.176;8.194;2022-09-01T09:16:51;2.47;;;1.00;;
18443;SDS011;9350;53.176;8.194;2022-09-01T09:19:22;9.15;;;1.52;;
18443;SDS011;9350;53.176;8.194;2022-09-01T09:21:52;1.83;;;1.00;;
18443;SDS011;9350;53.176;8.194;2022-09-01T09:24:22;2.05;;;0.90;;
18443;SDS011;9350;53.176;8.194;2022-09-01T09:26:54;0.80;;;0.80;;
18443;SDS011;9350;53.176;8.194;2022-09-01T09:29:22;0.95;;;0.95;;
18443;SDS011;9350;53.176;8.194;2022-09-01T09:31:52;0.80;;;0.80;;
18443;SDS011;9350;53.176;8.194;2022-09-01T09:34:30;1.42;;;0.80;;
18443;SDS011;9350;53.176;8.194;2022-09-01T09:37:18;0.70;;;0.70;;
18443;SDS011;9350;53.176;8.194;2022-09-01T09:42:34;0.82;;;0.80;;
18443;SDS011;9350;53.176;8.194;2022-09-01T09:45:04;0.85;;;0.80;;
18443;SDS011;9350;53.176;8.194;2022-09-01T09:47:39;0.95;;;0.90;;
18443;SDS011;9350;53.176;8.194;2022-09-01T09:50:11;0.63;;;0.63;;
18443;SDS011;9350;53.176;8.194;2022-09-01T09:52:41;0.82;;;0.82;;
18443;SDS011;9350;53.176;8.194;2022-09-01T09:55:17;2.72;;;0.90;;
18443;SDS011;9350;53.176;8.194;2022-09-01T09:57:49;1.33;;;0.80;;
18443;SDS011;9350;53.176;8.194;2022-09-01T10:00:19;2.00;;;0.80;;
18443;SDS011;9350;53.176;8.194;2022-09-01T10:02:51;0.98;;;0.98;;
18443;SDS011;9350;53.176;8.194;2022-09-01T10:05:31;4.60;;;1.15;;
18443;SDS011;9350;53.176;8.194;2022-09-01T10:08:01;3.83;;;1.27;;
18443;SDS011;9350;53.176;8.194;2022-09-01T10:10:35;2.47;;;0.77;;
18443;SDS011;9350;53.176;8.194;2022-09-01T10:13:04;0.98;;;0.80;;
18443;SDS011;9350;53.176;8.194;2022-09-01T10:15:35;0.85;;;0.77;;
18443;SDS011;9350;53.176;8.194;2022-09-01T10:18:04;0.95;;;0.95;;
18443;SDS011;9350;53.176;8.194;2022-09-01T10:20:36;2.15;;;0.80;;
18443;SDS011;9350;53.176;8.194;2022-09-01T10:23:04;0.98;;;0.70;;
18443;SDS011;9350;53.176;8.194;2022-09-01T10:25:32;0.80;;;0.80;;
18443;SDS011;9350;53.176;8.194;2022-09-01T10:28:01;0.80;;;0.80;;
18443;SDS011;9350;53.176;8.194;2022-09-01T10:30:35;1.10;;;0.80;;
18443;SDS011;9350;53.176;8.194;2022-09-01T10:33:06;0.98;;;0.80;;
18443;SDS011;9350;53.176;8.194;2022-09-01T10:35:36;2.08;;;0.70;;
18443;SDS011;9350;53.176;8.194;2022-09-01T10:38:09;1.95;;;0.82;;
18443;SDS011;9350;53.176;8.194;2022-09-01T10:40:41;0.80;;;0.80;;
18443;SDS011;9350;53.176;8.194;2022-09-01T10:49:13;1.27;;;0.77;;
18443;SDS011;9350;53.176;8.194;2022-09-01T10:51:47;3.55;;;0.65;;
18443;SDS011;9350;53.176;8.194;2022-09-01T10:57:24;0.70;;;0.70;;
18443;SDS011;9350;53.176;8.194;2022-09-01T11:00:14;2.38;;;0.80;;
18443;SDS011;9350;53.176;8.194;2022-09-01T11:03:35;0.73;;;0.70;;
18443;SDS011;9350;53.176;8.194;2022-09-01T11:09:18;1.00;;;0.80;;
18443;SDS011;9350;53.176;8.194;2022-09-01T11:11:50;0.70;;;0.70;;
18443;SDS011;9350;53.176;8.194;2022-09-01T11:14:30;0.70;;;0.70;;
18443;SDS011;9350;53.176;8.194;2022-09-01T11:17:09;1.63;;;0.85;;
18443;SDS011;9350;53.176;8.194;2022-09-01T11:19:38;0.73;;;0.73;;
18443;SDS011;9350;53.176;8.194;2022-09-01T11:22:20;0.80;;;0.80;;
18443;SDS011;9350;53.176;8.194;2022-09-01T11:25:07;2.83;;;1.17;;
18443;SDS011;9350;53.176;8.194;2022-09-01T11:28:07;2.70;;;0.70;;
18443;SDS011;9350;53.176;8.194;2022-09-01T11:30:50;2.85;;;0.80;;
18443;SDS011;9350;53.176;8.194;2022-09-01T11:36:19;0.70;;;0.70;;
18443;SDS011;9350;53.176;8.194;2022-09-01T11:38:54;0.60;;;0.60;;
18443;SDS011;9350;53.176;8.194;2022-09-01T11:41:30;1.27;;;0.75;;
18443;SDS011;9350;53.176;8.194;2022-09-01T11:44:00;0.80;;;0.80;;
18443;SDS011;9350;53.176;8.194;2022-09-01T11:46:35;0.75;;;0.75;;
18443;SDS011;9350;53.176;8.194;2022-09-01T11:51:53;0.70;;;0.70;;
18443;SDS011;9350;53.176;8.194;2022-09-01T11:54:21;1.35;;;0.65;;
18443;SDS011;9350;53.176;8.194;2022-09-01T11:56:50;2.05;;;0.60;;
18443;SDS011;9350;53.176;8.194;2022-09-01T11:59:31;0.85;;;0.70;;
18443;SDS011;9350;53.176;8.194;2022-09-01T12:01:59;0.60;;;0.60;;
18443;SDS011;9350;53.176;8.194;2022-09-01T12:04:29;0.80;;;0.80;;
18443;SDS011;9350;53.176;8.194;2022-09-01T12:06:58;0.57;;;0.57;;
18443;SDS011;9350;53.176;8.194;2022-09-01T12:09:31;1.25;;;1.00;;
18443;SDS011;9350;53.176;8.194;2022-09-01T12:12:04;1.95;;;0.70;;
18443;SDS011;9350;53.176;8.194;2022-09-01T12:14:32;0.70;;;0.70;;
18443;SDS011;9350;53.176;8.194;2022-09-01T12:17:00;0.85;;;0.70;;
18443;SDS011;9350;53.176;8.194;2022-09-01T12:19:30;0.82;;;0.82;;
18443;SDS011;9350;53.176;8.194;2022-09-01T12:22:00;0.77;;;0.77;;
18443;SDS011;9350;53.176;8.194;2022-09-01T12:24:30;1.20;;;0.68;;
18443;SDS011;9350;53.176;8.194;2022-09-01T12:26:59;3.50;;;0.70;;
18443;SDS011;9350;53.176;8.194;2022-09-01T12:29:28;1.70;;;0.80;;
18443;SDS011;9350;53.176;8.194;2022-09-01T12:31:56;0.80;;;0.80;;
18443;SDS011;9350;53.176;8.194;2022-09-01T12:34:25;1.95;;;0.60;;
18443;SDS011;9350;53.176;8.194;2022-09-01T12:37:01;0.60;;;0.55;;
18443;SDS011;9350;53.176;8.194;2022-09-01T12:39:36;1.08;;;0.70;;
18443;SDS011;9350;53.176;8.194;2022-09-01T12:42:06;2.00;;;0.70;;
18443;SDS011;9350;53.176;8.194;2022-09-01T12:44:43;0.85;;;0.77;;
18443;SDS011;9350;53.176;8.194;2022-09-01T12:47:13;0.70;;;0.70;;
18443;SDS011;9350;53.176;8.194;2022-09-01T12:53:12;1.42;;;0.80;;
18443;SDS011;9350;53.176;8.194;2022-09-01T12:55:41;0.70;;;0.70;;
18443;SDS011;9350;53.176;8.194;2022-09-01T12:58:23;1.10;;;0.73;;
18443;SDS011;9350;53.176;8.194;2022-09-01T13:00:55;0.82;;;0.82;;
18443;SDS011;9350;53.176;8.194;2022-09-01T13:03:25;1.00;;;1.00;;
18443;SDS011;9350;53.176;8.194;2022-09-01T13:05:54;1.95;;;0.70;;
18443;SDS011;9350;53.176;8.194;2022-09-01T13:08:23;3.13;;;0.80;;
18443;SDS011;9350;53.176;8.194;2022-09-01T13:10:53;0.70;;;0.70;;
18443;SDS011;9350;53.176;8.194;2022-09-01T13:13:21;1.00;;;0.52;;
18443;SDS011;9350;53.176;8.194;2022-09-01T13:15:50;0.60;;;0.60;;
18443;SDS011;9350;53.176;8.194;2022-09-01T13:18:18;2.22;;;0.80;;
18443;SDS011;9350;53.176;8.194;2022-09-01T13:20:48;0.60;;;0.60;;
18443;SDS011;9350;53.176;8.194;2022-09-01T13:23:16;0.80;;;0.80;;
18443;SDS011;9350;53.176;8.194;2022-09-01T13:25:43;0.63;;;0.63;;
18443;SDS011;9350;53.176;8.194;2022-09-01T13:28:11;1.60;;;0.65;;
18443;SDS011;9350;53.176;8.194;2022-09-01T13:30:39;1.27;;;0.90;;
18443;SDS011;9350;53.176;8.194;2022-09-01T13:33:06;0.80;;;0.70;;
18443;SDS011;9350;53.176;8.194;2022-09-01T13:35:33;2.78;;;0.80;;
18443;SDS011;9350;53.176;8.194;2022-09-01T13:38:01;0.63;;;0.63;;
18443;SDS011;9350;53.176;8.194;2022-09-01T13:40:27;0.90;;;0.90;;
18443;SDS011;9350;53.176;8.194;2022-09-01T13:42:54;3.78;;;0.73;;
18443;SDS011;9350;53.176;8.194;2022-09-01T13:45:22;7.22;;;1.02;;
18443;SDS011;9350;53.176;8.194;2022-09-01T13:47:50;0.65;;;0.65;;
18443;SDS011;9350;53.176;8.194;2022-09-01T13:50:19;0.70;;;0.70;;
18443;SDS011;9350;53.176;8.194;2022-09-01T13:52:47;1.75;;;0.88;;
18443;SDS011;9350;53.176;8.194;2022-09-01T13:55:19;0.77;;;0.77;;
18443;SDS011;9350;53.176;8.194;2022-09-01T13:57:47;1.05;;;0.65;;
18443;SDS011;9350;53.176;8.194;2022-09-01T14:00:15;0.60;;;0.60;;
18443;SDS011;9350;53.176;8.194;2022-09-01T14:02:44;0.77;;;0.77;;
18443;SDS011;9350;53.176;8.194;2022-09-01T14:05:14;0.80;;;0.80;;
18443;SDS011;9350;53.176;8.194;2022-09-01T14:07:41;0.80;;;0.80;;
18443;SDS011;9350;53.176;8.194;2022-09-01T14:10:08;0.80;;;0.80;;
18443;SDS011;9350;53.176;8.194;2022-09-01T14:12:37;0.70;;;0.70;;
18443;SDS011;9350;53.176;8.194;2022-09-01T14:15:06;2.58;;;0.77;;
18443;SDS011;9350;53.176;8.194;2022-09-01T14:17:34;2.08;;;0.82;;
18443;SDS011;9350;53.176;8.194;2022-09-01T14:20:02;1.25;;;0.68;;
18443;SDS011;9350;53.176;8.194;2022-09-01T14:22:30;2.38;;;0.70;;
18443;SDS011;9350;53.176;8.194;2022-09-01T14:24:58;1.25;;;0.70;;
18443;SDS011;9350;53.176;8.194;2022-09-01T14:27:24;1.15;;;0.68;;
18443;SDS011;9350;53.176;8.194;2022-09-01T14:29:53;0.70;;;0.70;;
18443;SDS011;9350;53.176;8.194;2022-09-01T14:32:19;1.00;;;1.00;;
18443;SDS011;9350;53.176;8.194;2022-09-01T14:34:50;0.98;;;0.73;;
18443;SDS011;9350;53.176;8.194;2022-09-01T14:37:17;0.93;;;0.85;;
18443;SDS011;9350;53.176;8.194;2022-09-01T14:39:47;0.63;;;0.63;;
18443;SDS011;9350;53.176;8.194;2022-09-01T14:42:15;0.70;;;0.70;;
18443;SDS011;9350;53.176;8.194;2022-09-01T14:44:43;4.15;;;0.73;;
18443;SDS011;9350;53.176;8.194;2022-09-01T14:47:11;1.80;;;0.70;;
18443;SDS011;9350;53.176;8.194;2022-09-01T14:49:38;0.73;;;0.73;;
18443;SDS011;9350;53.176;8.194;2022-09-01T14:52:06;1.83;;;0.80;;
18443;SDS011;9350;53.176;8.194;2022-09-01T14:54:34;0.80;;;0.80;;
18443;SDS011;9350;53.176;8.194;2022-09-01T14:57:01;1.38;;;1.08;;
18443;SDS011;9350;53.176;8.194;2022-09-01T14:59:28;0.73;;;0.73;;
18443;SDS011;9350;53.176;8.194;2022-09-01T15:01:54;0.93;;;0.90;;
18443;SDS011;9350;53.176;8.194;2022-09-01T15:04:23;0.73;;;0.73;;
18443;SDS011;9350;53.176;8.194;2022-09-01T15:06:50;0.73;;;0.60;;
18443;SDS011;9350;53.176;8.194;2022-09-01T15:09:16;0.80;;;0.80;;
18443;SDS011;9350;53.176;8.194;2022-09-01T15:11:43;0.98;;;0.77;;
18443;SDS011;9350;53.176;8.194;2022-09-01T15:14:10;3.85;;;0.77;;
18443;SDS011;9350;53.176;8.194;2022-09-01T15:16:37;0.77;;;0.77;;
18443;SDS011;9350;53.176;8.194;2022-09-01T15:19:05;0.75;;;0.75;;
18443;SDS011;9350;53.176;8.194;2022-09-01T15:21:35;0.60;;;0.60;;
18443;SDS011;9350;53.176;8.194;2022-09-01T15:24:03;1.20;;;0.80;;
18443;SDS011;9350;53.176;8.194;2022-09-01T15:26:31;2.25;;;0.85;;
18443;SDS011;9350;53.176;8.194;2022-09-01T15:28:58;0.80;;;0.80;;
18443;SDS011;9350;53.176;8.194;2022-09-01T15:31:26;1.50;;;0.80;;
18443;SDS011;9350;53.176;8.194;2022-09-01T15:33:56;3.90;;;0.85;;
18443;SDS011;9350;53.176;8.194;2022-09-01T15:36:25;0.60;;;0.60;;
18443;SDS011;9350;53.176;8.194;2022-09-01T15:38:55;2.40;;;0.85;;
18443;SDS011;9350;53.176;8.194;2022-09-01T15:41:23;1.88;;;0.90;;